sensor_id;sensor_type;location;lat;lon;timestamp;P1;durP1;ratioP1;P2;durP2;ratioP2
50495;SDS011;38806;51.554;5.704;2023-07-13T00:01:49;12.23;;;3.55;;
50495;SDS011;38806;51.554;5.704;2023-07-13T00:03:50;5.13;;;2.42;;
50495;SDS011;38806;51.554;5.704;2023-07-13T00:05:57;7.03;;;3.10;;
50495;SDS011;38806;51.554;5.704;2023-07-13T00:07:57;7.03;;;2.40;;
50495;SDS011;38806;51.554;5.704;2023-07-13T00:09:57;8.10;;;2.60;;
50495;SDS011;38806;51.554;5.704;2023-07-13T00:11:59;9.60;;;3.20;;
50495;SDS011;38806;51.554;5.704;2023-07-13T00:13:59;8.45;;;3.25;;
50495;SDS011;38806;51.554;5.704;2023-07-13T00:15:59;7.35;;;2.53;;
50495;SDS011;38806;51.554;5.704;2023-07-13T00:18:01;4.47;;;2.53;;
50495;SDS011;38806;51.554;5.704;2023-07-13T00:20:01;9.02;;;3.35;;
50495;SDS011;38806;51.554;5.704;2023-07-13T00:22:02;17.00;;;3.50;;
50495;SDS011;38806;51.554;5.704;2023-07-13T00:24:02;6.28;;;2.92;;
50495;SDS011;38806;51.554;5.704;2023-07-13T00:26:03;7.35;;;2.80;;
50495;SDS011;38806;51.554;5.704;2023-07-13T00:28:04;12.63;;;3.15;;
50495;SDS011;38806;51.554;5.704;2023-07-13T00:30:04;6.28;;;2.40;;
50495;SDS011;38806;51.554;5.704;2023-07-13T00:32:05;9.18;;;2.35;;
50495;SDS011;38806;51.554;5.704;2023-07-13T00:34:06;6.18;;;2.90;;
50495;SDS011;38806;51.554;5.704;2023-07-13T00:36:07;3.45;;;2.08;;
50495;SDS011;38806;51.554;5.704;2023-07-13T00:38:07;10.18;;;2.47;;
50495;SDS011;38806;51.554;5.704;2023-07-13T00:40:09;7.03;;;3.50;;
50495;SDS011;38806;51.554;5.704;2023-07-13T00:42:09;6.03;;;3.22;;
50495;SDS011;38806;51.554;5.704;2023-07-13T00:44:13;6.15;;;3.03;;
50495;SDS011;38806;51.554;5.704;2023-07-13T00:46:19;8.45;;;2.95;;
50495;SDS011;38806;51.554;5.704;2023-07-13T00:48:21;9.05;;;3.15;;
50495;SDS011;38806;51.554;5.704;2023-07-13T00:50:22;7.75;;;2.28;;
50495;SDS011;38806;51.554;5.704;2023-07-13T00:52:22;11.48;;;2.70;;
50495;SDS011;38806;51.554;5.704;2023-07-13T00:54:26;7.57;;;2.75;;
50495;SDS011;38806;51.554;5.704;2023-07-13T00:56:26;7.32;;;2.85;;
50495;SDS011;38806;51.554;5.704;2023-07-13T00:58:28;8.15;;;3.35;;
50495;SDS011;38806;51.554;5.704;2023-07-13T01:00:29;6.10;;;2.13;;
50495;SDS011;38806;51.554;5.704;2023-07-13T01:02:29;7.00;;;2.85;;
50495;SDS011;38806;51.554;5.704;2023-07-13T01:04:29;6.90;;;2.80;;
50495;SDS011;38806;51.554;5.704;2023-07-13T01:06:30;5.72;;;3.00;;
50495;SDS011;38806;51.554;5.704;2023-07-13T01:08:30;8.05;;;2.88;;
50495;SDS011;38806;51.554;5.704;2023-07-13T01:10:30;8.57;;;2.55;;
50495;SDS011;38806;51.554;5.704;2023-07-13T01:12:37;5.07;;;2.97;;
50495;SDS011;38806;51.554;5.704;2023-07-13T01:14:37;8.07;;;3.17;;
50495;SDS011;38806;51.554;5.704;2023-07-13T01:16:39;6.95;;;2.75;;
50495;SDS011;38806;51.554;5.704;2023-07-13T01:18:40;8.98;;;3.50;;
50495;SDS011;38806;51.554;5.704;2023-07-13T01:20:41;5.05;;;2.67;;
50495;SDS011;38806;51.554;5.704;2023-07-13T01:22:41;9.55;;;2.55;;
50495;SDS011;38806;51.554;5.704;2023-07-13T01:24:43;7.20;;;3.70;;
50495;SDS011;38806;51.554;5.704;2023-07-13T01:26:44;7.80;;;3.65;;
50495;SDS011;38806;51.554;5.704;2023-07-13T01:28:44;9.85;;;3.47;;
50495;SDS011;38806;51.554;5.704;2023-07-13T01:30:45;7.68;;;3.28;;
50495;SDS011;38806;51.554;5.704;2023-07-13T01:32:46;8.10;;;3.00;;
50495;SDS011;38806;51.554;5.704;2023-07-13T01:34:46;6.55;;;2.80;;
50495;SDS011;38806;51.554;5.704;2023-07-13T01:36:47;10.00;;;3.03;;
50495;SDS011;38806;51.554;5.704;2023-07-13T01:38:47;9.43;;;3.20;;
50495;SDS011;38806;51.554;5.704;2023-07-13T01:40:47;4.45;;;2.45;;
50495;SDS011;38806;51.554;5.704;2023-07-13T01:42:47;10.30;;;3.15;;
50495;SDS011;38806;51.554;5.704;2023-07-13T01:44:48;7.68;;;3.90;;
50495;SDS011;38806;51.554;5.704;2023-07-13T01:46:48;8.25;;;3.10;;
50495;SDS011;38806;51.554;5.704;2023-07-13T01:48:48;14.10;;;3.95;;
50495;SDS011;38806;51.554;5.704;2023-07-13T01:50:49;7.53;;;2.58;;
50495;SDS011;38806;51.554;5.704;2023-07-13T01:52:50;9.57;;;3.38;;
50495;SDS011;38806;51.554;5.704;2023-07-13T01:54:50;10.27;;;3.38;;
50495;SDS011;38806;51.554;5.704;2023-07-13T01:56:50;6.20;;;3.10;;
50495;SDS011;38806;51.554;5.704;2023-07-13T01:58:51;8.48;;;2.20;;
50495;SDS011;38806;51.554;5.704;2023-07-13T02:00:51;8.27;;;2.80;;
50495;SDS011;38806;51.554;5.704;2023-07-13T02:02:52;11.95;;;3.47;;
50495;SDS011;38806;51.554;5.704;2023-07-13T02:04:52;8.45;;;3.42;;
50495;SDS011;38806;51.554;5.704;2023-07-13T02:06:52;6.78;;;2.60;;
50495;SDS011;38806;51.554;5.704;2023-07-13T02:08:52;9.68;;;3.40;;
50495;SDS011;38806;51.554;5.704;2023-07-13T02:10:53;7.40;;;3.30;;
50495;SDS011;38806;51.554;5.704;2023-07-13T02:12:53;6.88;;;3.40;;
50495;SDS011;38806;51.554;5.704;2023-07-13T02:14:53;8.30;;;2.63;;
50495;SDS011;38806;51.554;5.704;2023-07-13T02:16:54;7.28;;;3.38;;
50495;SDS011;38806;51.554;5.704;2023-07-13T02:18:54;10.13;;;3.22;;
50495;SDS011;38806;51.554;5.704;2023-07-13T02:20:55;6.53;;;3.03;;
50495;SDS011;38806;51.554;5.704;2023-07-13T02:22:55;11.13;;;3.50;;
50495;SDS011;38806;51.554;5.704;2023-07-13T02:24:55;9.60;;;3.55;;
50495;SDS011;38806;51.554;5.704;2023-07-13T02:26:56;6.55;;;2.88;;
50495;SDS011;38806;51.554;5.704;2023-07-13T02:28:56;11.32;;;2.92;;
50495;SDS011;38806;51.554;5.704;2023-07-13T02:31:03;5.72;;;2.13;;
50495;SDS011;38806;51.554;5.704;2023-07-13T02:33:04;8.25;;;3.17;;
50495;SDS011;38806;51.554;5.704;2023-07-13T02:35:05;6.82;;;3.03;;
50495;SDS011;38806;51.554;5.704;2023-07-13T02:37:05;8.02;;;2.53;;
50495;SDS011;38806;51.554;5.704;2023-07-13T02:39:05;9.80;;;3.58;;
50495;SDS011;38806;51.554;5.704;2023-07-13T02:41:06;9.25;;;2.90;;
50495;SDS011;38806;51.554;5.704;2023-07-13T02:43:07;9.55;;;5.15;;
50495;SDS011;38806;51.554;5.704;2023-07-13T02:45:07;10.05;;;3.53;;
50495;SDS011;38806;51.554;5.704;2023-07-13T02:47:08;8.52;;;3.47;;
50495;SDS011;38806;51.554;5.704;2023-07-13T02:49:09;9.40;;;3.15;;
50495;SDS011;38806;51.554;5.704;2023-07-13T02:51:09;19.65;;;3.95;;
50495;SDS011;38806;51.554;5.704;2023-07-13T02:53:09;11.05;;;4.30;;
50495;SDS011;38806;51.554;5.704;2023-07-13T02:55:09;9.80;;;3.15;;
50495;SDS011;38806;51.554;5.704;2023-07-13T02:57:10;9.05;;;2.97;;
50495;SDS011;38806;51.554;5.704;2023-07-13T02:59:10;10.52;;;3.55;;
50495;SDS011;38806;51.554;5.704;2023-07-13T03:01:11;8.85;;;3.05;;
50495;SDS011;38806;51.554;5.704;2023-07-13T03:03:11;15.30;;;5.53;;
50495;SDS011;38806;51.554;5.704;2023-07-13T03:05:13;5.88;;;2.95;;
50495;SDS011;38806;51.554;5.704;2023-07-13T03:07:13;10.65;;;3.90;;
50495;SDS011;38806;51.554;5.704;2023-07-13T03:09:14;8.10;;;2.80;;
50495;SDS011;38806;51.554;5.704;2023-07-13T03:11:15;13.93;;;4.22;;
50495;SDS011;38806;51.554;5.704;2023-07-13T03:13:18;9.35;;;3.63;;
50495;SDS011;38806;51.554;5.704;2023-07-13T03:15:19;5.18;;;2.47;;
50495;SDS011;38806;51.554;5.704;2023-07-13T03:17:19;10.05;;;4.40;;
50495;SDS011;38806;51.554;5.704;2023-07-13T03:19:19;8.82;;;3.85;;
50495;SDS011;38806;51.554;5.704;2023-07-13T03:21:19;12.10;;;3.58;;
50495;SDS011;38806;51.554;5.704;2023-07-13T03:23:20;7.82;;;3.78;;
50495;SDS011;38806;51.554;5.704;2023-07-13T03:25:20;14.43;;;5.28;;
50495;SDS011;38806;51.554;5.704;2023-07-13T03:27:21;12.93;;;4.22;;
50495;SDS011;38806;51.554;5.704;2023-07-13T03:29:21;15.93;;;3.47;;
50495;SDS011;38806;51.554;5.704;2023-07-13T03:31:22;9.30;;;3.35;;
50495;SDS011;38806;51.554;5.704;2023-07-13T03:33:23;9.70;;;3.55;;
50495;SDS011;38806;51.554;5.704;2023-07-13T03:35:23;10.48;;;3.70;;
50495;SDS011;38806;51.554;5.704;2023-07-13T03:37:23;9.27;;;3.58;;
50495;SDS011;38806;51.554;5.704;2023-07-13T03:39:24;11.90;;;4.38;;
50495;SDS011;38806;51.554;5.704;2023-07-13T03:41:24;12.00;;;3.53;;
50495;SDS011;38806;51.554;5.704;2023-07-13T03:43:25;11.82;;;3.95;;
50495;SDS011;38806;51.554;5.704;2023-07-13T03:45:25;15.35;;;5.72;;
50495;SDS011;38806;51.554;5.704;2023-07-13T03:47:25;9.48;;;4.10;;
50495;SDS011;38806;51.554;5.704;2023-07-13T03:49:25;11.50;;;4.20;;
50495;SDS011;38806;51.554;5.704;2023-07-13T03:51:26;8.90;;;3.58;;
50495;SDS011;38806;51.554;5.704;2023-07-13T03:53:26;10.00;;;4.05;;
50495;SDS011;38806;51.554;5.704;2023-07-13T03:55:26;13.65;;;5.00;;
50495;SDS011;38806;51.554;5.704;2023-07-13T03:57:26;11.23;;;4.38;;
50495;SDS011;38806;51.554;5.704;2023-07-13T03:59:27;12.55;;;3.95;;
50495;SDS011;38806;51.554;5.704;2023-07-13T04:01:27;15.50;;;4.15;;
50495;SDS011;38806;51.554;5.704;2023-07-13T04:03:27;11.60;;;4.57;;
50495;SDS011;38806;51.554;5.704;2023-07-13T04:05:28;13.07;;;4.90;;
50495;SDS011;38806;51.554;5.704;2023-07-13T04:07:28;17.15;;;5.93;;
50495;SDS011;38806;51.554;5.704;2023-07-13T04:09:28;16.45;;;6.38;;
50495;SDS011;38806;51.554;5.704;2023-07-13T04:11:29;8.23;;;2.92;;
50495;SDS011;38806;51.554;5.704;2023-07-13T04:13:31;13.88;;;5.82;;
50495;SDS011;38806;51.554;5.704;2023-07-13T04:15:32;11.05;;;3.90;;
50495;SDS011;38806;51.554;5.704;2023-07-13T04:17:32;13.00;;;4.55;;
50495;SDS011;38806;51.554;5.704;2023-07-13T04:19:32;10.68;;;5.03;;
50495;SDS011;38806;51.554;5.704;2023-07-13T04:21:33;15.18;;;4.35;;
50495;SDS011;38806;51.554;5.704;2023-07-13T04:23:33;11.82;;;4.65;;
50495;SDS011;38806;51.554;5.704;2023-07-13T04:25:33;14.40;;;4.90;;
50495;SDS011;38806;51.554;5.704;2023-07-13T04:27:34;12.15;;;4.60;;
50495;SDS011;38806;51.554;5.704;2023-07-13T04:29:34;19.80;;;4.75;;
50495;SDS011;38806;51.554;5.704;2023-07-13T04:31:34;10.93;;;4.93;;
50495;SDS011;38806;51.554;5.704;2023-07-13T04:33:34;8.77;;;4.80;;
50495;SDS011;38806;51.554;5.704;2023-07-13T04:35:35;9.18;;;5.15;;
50495;SDS011;38806;51.554;5.704;2023-07-13T04:37:35;15.82;;;5.80;;
50495;SDS011;38806;51.554;5.704;2023-07-13T04:39:35;13.13;;;4.80;;
50495;SDS011;38806;51.554;5.704;2023-07-13T04:41:36;12.50;;;4.80;;
50495;SDS011;38806;51.554;5.704;2023-07-13T04:43:36;13.77;;;5.70;;
50495;SDS011;38806;51.554;5.704;2023-07-13T04:45:37;14.07;;;4.00;;
50495;SDS011;38806;51.554;5.704;2023-07-13T04:47:37;15.38;;;6.28;;
50495;SDS011;38806;51.554;5.704;2023-07-13T04:49:37;9.68;;;4.45;;
50495;SDS011;38806;51.554;5.704;2023-07-13T04:51:37;14.05;;;5.40;;
50495;SDS011;38806;51.554;5.704;2023-07-13T04:53:38;13.07;;;5.43;;
50495;SDS011;38806;51.554;5.704;2023-07-13T04:55:38;11.82;;;7.13;;
50495;SDS011;38806;51.554;5.704;2023-07-13T04:57:39;13.80;;;6.18;;
50495;SDS011;38806;51.554;5.704;2023-07-13T04:59:39;17.15;;;7.15;;
50495;SDS011;38806;51.554;5.704;2023-07-13T05:01:40;14.27;;;7.03;;
50495;SDS011;38806;51.554;5.704;2023-07-13T05:03:40;14.05;;;5.40;;
50495;SDS011;38806;51.554;5.704;2023-07-13T05:05:41;15.15;;;5.25;;
50495;SDS011;38806;51.554;5.704;2023-07-13T05:07:41;12.00;;;6.32;;
50495;SDS011;38806;51.554;5.704;2023-07-13T05:09:41;12.05;;;6.82;;
50495;SDS011;38806;51.554;5.704;2023-07-13T05:11:42;18.77;;;9.60;;
50495;SDS011;38806;51.554;5.704;2023-07-13T05:13:43;29.58;;;7.20;;
50495;SDS011;38806;51.554;5.704;2023-07-13T05:15:43;16.20;;;6.45;;
50495;SDS011;38806;51.554;5.704;2023-07-13T05:17:43;19.35;;;8.45;;
50495;SDS011;38806;51.554;5.704;2023-07-13T05:19:44;15.20;;;7.90;;
50495;SDS011;38806;51.554;5.704;2023-07-13T05:21:44;16.40;;;7.82;;
50495;SDS011;38806;51.554;5.704;2023-07-13T05:23:44;22.17;;;9.32;;
50495;SDS011;38806;51.554;5.704;2023-07-13T05:25:44;16.73;;;7.90;;
50495;SDS011;38806;51.554;5.704;2023-07-13T05:27:45;25.40;;;10.68;;
50495;SDS011;38806;51.554;5.704;2023-07-13T05:29:45;25.92;;;11.05;;
50495;SDS011;38806;51.554;5.704;2023-07-13T05:31:46;21.40;;;11.85;;
50495;SDS011;38806;51.554;5.704;2023-07-13T05:33:46;18.58;;;10.32;;
50495;SDS011;38806;51.554;5.704;2023-07-13T05:35:46;23.80;;;11.20;;
50495;SDS011;38806;51.554;5.704;2023-07-13T05:37:47;23.33;;;9.15;;
50495;SDS011;38806;51.554;5.704;2023-07-13T05:39:47;21.35;;;8.63;;
50495;SDS011;38806;51.554;5.704;2023-07-13T05:41:48;22.05;;;10.23;;
50495;SDS011;38806;51.554;5.704;2023-07-13T05:43:48;23.63;;;9.65;;
50495;SDS011;38806;51.554;5.704;2023-07-13T05:45:48;23.35;;;10.82;;
50495;SDS011;38806;51.554;5.704;2023-07-13T05:47:49;22.42;;;9.77;;
50495;SDS011;38806;51.554;5.704;2023-07-13T05:49:50;16.27;;;9.25;;
50495;SDS011;38806;51.554;5.704;2023-07-13T05:51:50;20.83;;;8.60;;
50495;SDS011;38806;51.554;5.704;2023-07-13T05:53:50;20.63;;;10.02;;
50495;SDS011;38806;51.554;5.704;2023-07-13T05:55:50;24.73;;;10.80;;
50495;SDS011;38806;51.554;5.704;2023-07-13T05:57:53;18.63;;;9.48;;
50495;SDS011;38806;51.554;5.704;2023-07-13T05:59:53;18.13;;;8.32;;
50495;SDS011;38806;51.554;5.704;2023-07-13T06:01:53;24.23;;;8.65;;
50495;SDS011;38806;51.554;5.704;2023-07-13T06:03:53;14.82;;;8.82;;
50495;SDS011;38806;51.554;5.704;2023-07-13T06:05:53;16.50;;;9.90;;
50495;SDS011;38806;51.554;5.704;2023-07-13T06:07:54;16.20;;;9.18;;
50495;SDS011;38806;51.554;5.704;2023-07-13T06:09:54;19.15;;;10.15;;
50495;SDS011;38806;51.554;5.704;2023-07-13T06:11:54;21.33;;;9.05;;
50495;SDS011;38806;51.554;5.704;2023-07-13T06:13:55;23.15;;;10.60;;
50495;SDS011;38806;51.554;5.704;2023-07-13T06:15:55;21.52;;;9.77;;
50495;SDS011;38806;51.554;5.704;2023-07-13T06:17:55;20.25;;;10.07;;
50495;SDS011;38806;51.554;5.704;2023-07-13T06:19:55;22.23;;;11.02;;
50495;SDS011;38806;51.554;5.704;2023-07-13T06:21:56;21.20;;;10.68;;
50495;SDS011;38806;51.554;5.704;2023-07-13T06:23:56;18.98;;;10.50;;
50495;SDS011;38806;51.554;5.704;2023-07-13T06:25:56;21.08;;;10.30;;
50495;SDS011;38806;51.554;5.704;2023-07-13T06:27:57;24.80;;;10.95;;
50495;SDS011;38806;51.554;5.704;2023-07-13T06:29:57;21.63;;;11.25;;
50495;SDS011;38806;51.554;5.704;2023-07-13T06:31:57;17.75;;;10.15;;
50495;SDS011;38806;51.554;5.704;2023-07-13T06:33:58;22.27;;;9.05;;
50495;SDS011;38806;51.554;5.704;2023-07-13T06:35:58;21.58;;;10.25;;
50495;SDS011;38806;51.554;5.704;2023-07-13T06:37:58;14.63;;;8.45;;
50495;SDS011;38806;51.554;5.704;2023-07-13T06:39:58;18.00;;;9.60;;
50495;SDS011;38806;51.554;5.704;2023-07-13T06:41:59;17.52;;;9.95;;
50495;SDS011;38806;51.554;5.704;2023-07-13T06:43:59;17.42;;;8.38;;
50495;SDS011;38806;51.554;5.704;2023-07-13T06:45:59;15.98;;;8.80;;
50495;SDS011;38806;51.554;5.704;2023-07-13T06:48:00;25.50;;;10.60;;
50495;SDS011;38806;51.554;5.704;2023-07-13T06:50:01;22.20;;;8.52;;
50495;SDS011;38806;51.554;5.704;2023-07-13T06:52:01;18.20;;;9.60;;
50495;SDS011;38806;51.554;5.704;2023-07-13T06:54:02;19.27;;;9.60;;
50495;SDS011;38806;51.554;5.704;2023-07-13T06:56:02;18.95;;;9.70;;
50495;SDS011;38806;51.554;5.704;2023-07-13T06:58:03;24.33;;;12.52;;
50495;SDS011;38806;51.554;5.704;2023-07-13T07:00:03;21.23;;;9.75;;
50495;SDS011;38806;51.554;5.704;2023-07-13T07:02:08;31.52;;;14.55;;
50495;SDS011;38806;51.554;5.704;2023-07-13T07:04:08;18.75;;;10.07;;
50495;SDS011;38806;51.554;5.704;2023-07-13T07:06:13;20.60;;;9.80;;
50495;SDS011;38806;51.554;5.704;2023-07-13T07:08:15;19.63;;;10.52;;
50495;SDS011;38806;51.554;5.704;2023-07-13T07:10:15;17.65;;;11.00;;
50495;SDS011;38806;51.554;5.704;2023-07-13T07:12:15;20.95;;;9.80;;
50495;SDS011;38806;51.554;5.704;2023-07-13T07:14:15;16.60;;;10.02;;
50495;SDS011;38806;51.554;5.704;2023-07-13T07:16:16;24.05;;;9.45;;
50495;SDS011;38806;51.554;5.704;2023-07-13T07:18:16;18.08;;;8.90;;
50495;SDS011;38806;51.554;5.704;2023-07-13T07:20:16;17.17;;;10.57;;
50495;SDS011;38806;51.554;5.704;2023-07-13T07:22:17;19.38;;;8.45;;
50495;SDS011;38806;51.554;5.704;2023-07-13T07:24:17;18.73;;;10.93;;
50495;SDS011;38806;51.554;5.704;2023-07-13T07:26:17;15.55;;;8.98;;
50495;SDS011;38806;51.554;5.704;2023-07-13T07:28:17;17.52;;;8.23;;
50495;SDS011;38806;51.554;5.704;2023-07-13T07:30:18;18.83;;;7.65;;
50495;SDS011;38806;51.554;5.704;2023-07-13T07:32:19;16.23;;;9.35;;
50495;SDS011;38806;51.554;5.704;2023-07-13T07:34:19;23.00;;;10.23;;
50495;SDS011;38806;51.554;5.704;2023-07-13T07:36:19;18.13;;;9.15;;
50495;SDS011;38806;51.554;5.704;2023-07-13T07:38:20;16.25;;;8.57;;
50495;SDS011;38806;51.554;5.704;2023-07-13T07:40:20;23.92;;;9.27;;
50495;SDS011;38806;51.554;5.704;2023-07-13T07:42:21;26.40;;;9.32;;
50495;SDS011;38806;51.554;5.704;2023-07-13T07:44:21;19.33;;;8.18;;
50495;SDS011;38806;51.554;5.704;2023-07-13T07:46:23;20.40;;;9.40;;
50495;SDS011;38806;51.554;5.704;2023-07-13T07:48:23;16.25;;;7.82;;
50495;SDS011;38806;51.554;5.704;2023-07-13T07:50:23;16.50;;;8.20;;
50495;SDS011;38806;51.554;5.704;2023-07-13T07:52:23;20.65;;;9.13;;
50495;SDS011;38806;51.554;5.704;2023-07-13T07:54:24;16.15;;;9.07;;
50495;SDS011;38806;51.554;5.704;2023-07-13T07:56:24;19.05;;;7.85;;
50495;SDS011;38806;51.554;5.704;2023-07-13T07:58:24;18.25;;;8.07;;
50495;SDS011;38806;51.554;5.704;2023-07-13T08:00:24;16.05;;;8.43;;
50495;SDS011;38806;51.554;5.704;2023-07-13T08:02:25;15.85;;;8.88;;
50495;SDS011;38806;51.554;5.704;2023-07-13T08:04:25;13.13;;;7.53;;
50495;SDS011;38806;51.554;5.704;2023-07-13T08:06:25;17.45;;;9.25;;
50495;SDS011;38806;51.554;5.704;2023-07-13T08:08:26;19.65;;;8.68;;
50495;SDS011;38806;51.554;5.704;2023-07-13T08:10:26;24.70;;;8.85;;
50495;SDS011;38806;51.554;5.704;2023-07-13T08:12:26;19.35;;;9.75;;
50495;SDS011;38806;51.554;5.704;2023-07-13T08:14:27;17.45;;;7.63;;
50495;SDS011;38806;51.554;5.704;2023-07-13T08:16:27;21.65;;;8.57;;
50495;SDS011;38806;51.554;5.704;2023-07-13T08:18:27;18.10;;;7.57;;
50495;SDS011;38806;51.554;5.704;2023-07-13T08:20:28;18.13;;;7.85;;
50495;SDS011;38806;51.554;5.704;2023-07-13T08:22:28;14.65;;;7.88;;
50495;SDS011;38806;51.554;5.704;2023-07-13T08:24:28;15.13;;;6.43;;
50495;SDS011;38806;51.554;5.704;2023-07-13T08:26:28;15.33;;;6.67;;
50495;SDS011;38806;51.554;5.704;2023-07-13T08:28:29;13.15;;;6.97;;
50495;SDS011;38806;51.554;5.704;2023-07-13T08:30:29;16.10;;;6.97;;
50495;SDS011;38806;51.554;5.704;2023-07-13T08:32:29;10.75;;;6.15;;
50495;SDS011;38806;51.554;5.704;2023-07-13T08:34:29;14.10;;;6.60;;
50495;SDS011;38806;51.554;5.704;2023-07-13T08:36:30;13.02;;;6.78;;
50495;SDS011;38806;51.554;5.704;2023-07-13T08:38:30;11.63;;;6.10;;
50495;SDS011;38806;51.554;5.704;2023-07-13T08:40:30;10.77;;;6.43;;
50495;SDS011;38806;51.554;5.704;2023-07-13T08:46:38;9.53;;;5.30;;
50495;SDS011;38806;51.554;5.704;2023-07-13T08:48:53;12.73;;;5.55;;
50495;SDS011;38806;51.554;5.704;2023-07-13T08:50:56;12.77;;;5.18;;
50495;SDS011;38806;51.554;5.704;2023-07-13T08:52:57;15.13;;;5.50;;
50495;SDS011;38806;51.554;5.704;2023-07-13T08:54:58;9.32;;;5.47;;
50495;SDS011;38806;51.554;5.704;2023-07-13T08:57:08;10.38;;;4.97;;
50495;SDS011;38806;51.554;5.704;2023-07-13T08:59:16;14.73;;;7.00;;
50495;SDS011;38806;51.554;5.704;2023-07-13T09:03:20;8.63;;;4.20;;
50495;SDS011;38806;51.554;5.704;2023-07-13T09:05:30;10.73;;;4.15;;
50495;SDS011;38806;51.554;5.704;2023-07-13T09:11:59;11.45;;;5.38;;
50495;SDS011;38806;51.554;5.704;2023-07-13T09:16:03;7.60;;;4.20;;
50495;SDS011;38806;51.554;5.704;2023-07-13T09:18:08;9.57;;;4.32;;
50495;SDS011;38806;51.554;5.704;2023-07-13T09:20:11;9.60;;;4.28;;
50495;SDS011;38806;51.554;5.704;2023-07-13T09:22:16;10.10;;;4.95;;
50495;SDS011;38806;51.554;5.704;2023-07-13T09:26:21;7.75;;;3.70;;
50495;SDS011;38806;51.554;5.704;2023-07-13T09:28:23;8.52;;;3.58;;
50495;SDS011;38806;51.554;5.704;2023-07-13T09:30:30;11.07;;;4.20;;
50495;SDS011;38806;51.554;5.704;2023-07-13T09:32:31;9.40;;;3.63;;
50495;SDS011;38806;51.554;5.704;2023-07-13T09:34:33;7.80;;;3.60;;
50495;SDS011;38806;51.554;5.704;2023-07-13T09:36:33;10.57;;;3.25;;
50495;SDS011;38806;51.554;5.704;2023-07-13T09:38:36;8.82;;;3.92;;
50495;SDS011;38806;51.554;5.704;2023-07-13T09:42:43;7.45;;;3.38;;
50495;SDS011;38806;51.554;5.704;2023-07-13T09:46:45;6.67;;;3.23;;
50495;SDS011;38806;51.554;5.704;2023-07-13T09:48:45;7.10;;;3.53;;
50495;SDS011;38806;51.554;5.704;2023-07-13T09:50:46;10.73;;;3.17;;
50495;SDS011;38806;51.554;5.704;2023-07-13T09:52:47;7.60;;;3.42;;
50495;SDS011;38806;51.554;5.704;2023-07-13T09:54:48;8.07;;;3.17;;
50495;SDS011;38806;51.554;5.704;2023-07-13T09:56:56;8.27;;;3.83;;
50495;SDS011;38806;51.554;5.704;2023-07-13T09:58:56;6.88;;;3.05;;
50495;SDS011;38806;51.554;5.704;2023-07-13T10:01:01;7.22;;;3.22;;
50495;SDS011;38806;51.554;5.704;2023-07-13T10:03:05;12.23;;;4.40;;
50495;SDS011;38806;51.554;5.704;2023-07-13T10:05:14;9.00;;;3.80;;
50495;SDS011;38806;51.554;5.704;2023-07-13T10:07:15;6.32;;;2.95;;
50495;SDS011;38806;51.554;5.704;2023-07-13T10:09:16;5.97;;;3.53;;
50495;SDS011;38806;51.554;5.704;2023-07-13T10:11:21;11.00;;;4.05;;
50495;SDS011;38806;51.554;5.704;2023-07-13T10:15:26;8.07;;;4.03;;
50495;SDS011;38806;51.554;5.704;2023-07-13T10:17:29;6.10;;;3.33;;
50495;SDS011;38806;51.554;5.704;2023-07-13T10:19:32;8.93;;;3.47;;
50495;SDS011;38806;51.554;5.704;2023-07-13T10:21:54;6.18;;;3.08;;
50495;SDS011;38806;51.554;5.704;2023-07-13T10:24:00;4.53;;;2.35;;
50495;SDS011;38806;51.554;5.704;2023-07-13T10:26:06;10.75;;;2.90;;
50495;SDS011;38806;51.554;5.704;2023-07-13T10:28:28;10.82;;;2.88;;
50495;SDS011;38806;51.554;5.704;2023-07-13T10:30:33;8.23;;;2.85;;
50495;SDS011;38806;51.554;5.704;2023-07-13T10:32:35;6.30;;;3.53;;
50495;SDS011;38806;51.554;5.704;2023-07-13T10:34:35;8.05;;;2.95;;
50495;SDS011;38806;51.554;5.704;2023-07-13T10:36:40;5.80;;;3.05;;
50495;SDS011;38806;51.554;5.704;2023-07-13T10:38:42;5.90;;;2.33;;
50495;SDS011;38806;51.554;5.704;2023-07-13T10:40:43;5.55;;;2.25;;
50495;SDS011;38806;51.554;5.704;2023-07-13T10:42:46;9.32;;;2.55;;
50495;SDS011;38806;51.554;5.704;2023-07-13T10:44:48;4.88;;;2.25;;
50495;SDS011;38806;51.554;5.704;2023-07-13T10:46:49;7.32;;;3.10;;
50495;SDS011;38806;51.554;5.704;2023-07-13T10:48:50;4.82;;;2.30;;
50495;SDS011;38806;51.554;5.704;2023-07-13T10:50:52;3.75;;;2.08;;
50495;SDS011;38806;51.554;5.704;2023-07-13T10:52:54;8.35;;;3.50;;
50495;SDS011;38806;51.554;5.704;2023-07-13T10:54:56;7.97;;;2.08;;
50495;SDS011;38806;51.554;5.704;2023-07-13T10:59:26;8.23;;;2.58;;
50495;SDS011;38806;51.554;5.704;2023-07-13T11:01:28;6.57;;;2.65;;
50495;SDS011;38806;51.554;5.704;2023-07-13T11:03:53;7.50;;;2.22;;
50495;SDS011;38806;51.554;5.704;2023-07-13T11:08:32;6.28;;;2.75;;
50495;SDS011;38806;51.554;5.704;2023-07-13T11:12:53;6.07;;;3.22;;
50495;SDS011;38806;51.554;5.704;2023-07-13T11:16:54;11.52;;;4.43;;
50495;SDS011;38806;51.554;5.704;2023-07-13T11:21:14;13.98;;;6.47;;
50495;SDS011;38806;51.554;5.704;2023-07-13T11:27:41;8.70;;;5.50;;
50495;SDS011;38806;51.554;5.704;2023-07-13T11:29:42;7.47;;;5.13;;
50495;SDS011;38806;51.554;5.704;2023-07-13T11:31:53;10.52;;;5.40;;
50495;SDS011;38806;51.554;5.704;2023-07-13T11:33:55;6.90;;;5.05;;
50495;SDS011;38806;51.554;5.704;2023-07-13T11:37:56;13.83;;;6.83;;
50495;SDS011;38806;51.554;5.704;2023-07-13T11:39:56;9.82;;;6.00;;
50495;SDS011;38806;51.554;5.704;2023-07-13T11:42:02;7.70;;;6.30;;
50495;SDS011;38806;51.554;5.704;2023-07-13T11:44:22;11.35;;;5.97;;
50495;SDS011;38806;51.554;5.704;2023-07-13T11:46:24;9.70;;;5.75;;
50495;SDS011;38806;51.554;5.704;2023-07-13T11:48:26;10.88;;;5.78;;
50495;SDS011;38806;51.554;5.704;2023-07-13T11:50:27;10.75;;;5.32;;
50495;SDS011;38806;51.554;5.704;2023-07-13T11:52:34;11.05;;;5.70;;
50495;SDS011;38806;51.554;5.704;2023-07-13T11:54:43;14.50;;;6.30;;
50495;SDS011;38806;51.554;5.704;2023-07-13T11:56:50;10.50;;;6.90;;
50495;SDS011;38806;51.554;5.704;2023-07-13T11:58:51;13.63;;;7.80;;
50495;SDS011;38806;51.554;5.704;2023-07-13T12:00:53;10.73;;;7.07;;
50495;SDS011;38806;51.554;5.704;2023-07-13T12:02:55;8.98;;;7.28;;
50495;SDS011;38806;51.554;5.704;2023-07-13T12:04:56;10.63;;;7.28;;
50495;SDS011;38806;51.554;5.704;2023-07-13T12:06:58;18.02;;;7.88;;
50495;SDS011;38806;51.554;5.704;2023-07-13T12:09:03;10.52;;;8.00;;
50495;SDS011;38806;51.554;5.704;2023-07-13T12:11:05;15.68;;;9.70;;
50495;SDS011;38806;51.554;5.704;2023-07-13T12:13:05;13.07;;;9.35;;
50495;SDS011;38806;51.554;5.704;2023-07-13T12:15:09;12.38;;;7.40;;
50495;SDS011;38806;51.554;5.704;2023-07-13T12:17:20;9.95;;;7.70;;
50495;SDS011;38806;51.554;5.704;2023-07-13T12:19:25;12.35;;;7.00;;
50495;SDS011;38806;51.554;5.704;2023-07-13T12:21:31;13.45;;;9.23;;
50495;SDS011;38806;51.554;5.704;2023-07-13T12:23:32;13.00;;;10.13;;
50495;SDS011;38806;51.554;5.704;2023-07-13T12:25:33;12.75;;;8.50;;
50495;SDS011;38806;51.554;5.704;2023-07-13T12:27:33;11.68;;;7.95;;
50495;SDS011;38806;51.554;5.704;2023-07-13T12:29:34;10.98;;;6.88;;
50495;SDS011;38806;51.554;5.704;2023-07-13T12:31:40;10.98;;;5.38;;
50495;SDS011;38806;51.554;5.704;2023-07-13T12:33:41;9.25;;;5.35;;
50495;SDS011;38806;51.554;5.704;2023-07-13T12:35:47;8.65;;;5.00;;
50495;SDS011;38806;51.554;5.704;2023-07-13T12:37:49;10.90;;;5.33;;
50495;SDS011;38806;51.554;5.704;2023-07-13T12:39:51;7.18;;;4.80;;
50495;SDS011;38806;51.554;5.704;2023-07-13T12:41:52;6.82;;;5.32;;
50495;SDS011;38806;51.554;5.704;2023-07-13T12:43:52;8.90;;;5.40;;